createdAt,value
2023-03-23T15:59:51.541Z,10.86
2023-03-23T16:02:59.201Z,10.84
2023-03-23T16:06:06.451Z,10.80
2023-03-23T16:09:16.193Z,10.68
2023-03-23T16:12:21.450Z,10.56
2023-03-23T16:15:26.743Z,10.48
2023-03-23T16:18:32.102Z,10.55
2023-03-23T16:21:38.303Z,10.46
2023-03-23T16:24:43.438Z,10.41
2023-03-23T16:27:52.657Z,10.35
2023-03-23T16:30:58.221Z,10.28
2023-03-23T16:34:03.291Z,10.22
2023-03-23T16:37:10.675Z,10.16
2023-03-23T16:40:16.814Z,10.02
2023-03-23T16:43:22.973Z,9.99
2023-03-23T16:46:28.072Z,9.81
2023-03-23T16:49:33.250Z,9.77
2023-03-23T16:52:46.620Z,9.73
2023-03-23T16:55:53.657Z,9.67
2023-03-23T16:59:02.960Z,9.54
2023-03-23T17:02:08.236Z,9.37
2023-03-23T17:05:13.631Z,9.40
2023-03-23T17:08:20.632Z,9.53
2023-03-23T17:11:25.878Z,9.40
2023-03-23T17:14:31.077Z,9.36
2023-03-23T17:17:36.672Z,9.14
2023-03-23T17:20:41.810Z,9.04
2023-03-23T17:23:48.425Z,9.03
2023-03-23T17:26:53.558Z,9.08
2023-03-23T17:29:58.855Z,9.04
2023-03-23T17:33:04.181Z,9.03
2023-03-23T17:36:10.140Z,9.14
2023-03-23T17:39:16.789Z,9.02
2023-03-23T17:42:22.175Z,8.80
2023-03-23T17:45:27.281Z,8.69
2023-03-23T17:48:32.318Z,8.77
2023-03-23T17:51:37.445Z,8.68
2023-03-23T17:54:43.992Z,8.58
2023-03-23T17:57:49.051Z,8.38
2023-03-23T18:00:54.378Z,8.50
2023-03-23T18:03:59.710Z,8.33
2023-03-23T18:07:05.164Z,8.42
2023-03-23T18:10:13.140Z,8.00
2023-03-23T18:13:18.434Z,8.21
2023-03-23T18:16:23.556Z,8.11
2023-03-23T18:19:28.988Z,8.15
2023-03-23T18:22:34.086Z,7.93
2023-03-23T18:25:40.538Z,8.15
2023-03-23T18:28:45.703Z,7.84
2023-03-23T18:31:51.141Z,7.88
2023-03-23T18:34:56.670Z,7.79
2023-03-23T18:38:01.782Z,7.85
2023-03-23T18:41:10.461Z,7.90
2023-03-23T18:44:15.647Z,7.98
2023-03-23T18:47:21.540Z,7.83
2023-03-23T18:50:26.697Z,7.64
2023-03-23T18:53:31.977Z,7.38
2023-03-23T18:56:38.487Z,7.54
2023-03-23T18:59:43.686Z,7.44
2023-03-23T19:02:51.900Z,7.49
2023-03-23T19:06:00.462Z,7.36
2023-03-23T19:09:06.187Z,7.14
2023-03-23T19:12:15.192Z,7.16
2023-03-23T19:15:21.054Z,7.39
2023-03-23T19:18:26.528Z,7.28
2023-03-23T19:21:32.639Z,7.20
2023-03-23T19:24:38.472Z,7.08
2023-03-23T19:28:23.131Z,7.01
2023-03-23T19:31:10.682Z,7.18
2023-03-23T19:34:17.047Z,7.23
2023-03-23T19:37:22.263Z,6.96
2023-03-23T19:43:39.435Z,6.74
2023-03-23T19:46:44.705Z,6.86
2023-03-23T19:49:50.869Z,7.04
2023-03-23T19:52:58.678Z,7.13
2023-03-23T19:56:05.439Z,7.29
2023-03-23T19:59:15.001Z,7.33
2023-03-23T20:02:20.552Z,7.45
2023-03-23T20:05:25.476Z,7.46
2023-03-23T20:08:31.366Z,7.38
2023-03-23T20:11:36.628Z,7.41
2023-03-23T20:14:45.394Z,7.45
2023-03-23T20:17:50.762Z,7.29
2023-03-23T20:21:02.697Z,7.37
2023-03-23T20:24:07.982Z,7.42
2023-03-23T20:27:13.555Z,7.35
2023-03-23T20:30:20.528Z,7.35
2023-03-23T20:33:26.523Z,7.36
2023-03-23T20:36:35.230Z,7.34
2023-03-23T20:39:42.361Z,7.25
2023-03-23T20:42:48.295Z,7.21
2023-03-23T20:45:54.923Z,7.36
2023-03-23T20:49:01.016Z,7.28
2023-03-23T20:52:08.358Z,7.26
2023-03-23T20:55:15.432Z,7.29
2023-03-23T20:58:21.243Z,7.32
2023-03-23T21:01:27.832Z,7.35
2023-03-23T21:04:33.013Z,7.37
2023-03-23T21:07:39.353Z,7.38
2023-03-23T21:10:45.163Z,7.46
2023-03-23T21:13:51.047Z,7.48
2023-03-23T21:17:01.407Z,7.52
2023-03-23T21:20:07.886Z,7.59
2023-03-23T21:23:14.957Z,7.58
2023-03-23T21:26:21.894Z,7.56
2023-03-23T21:29:27.678Z,7.55
2023-03-23T21:32:34.617Z,7.65
2023-03-23T21:35:40.147Z,7.63
2023-03-23T21:38:46.088Z,7.65
2023-03-23T21:41:51.228Z,7.65
2023-03-23T21:44:56.812Z,7.72
2023-03-23T21:48:03.792Z,7.73
2023-03-23T21:51:10.764Z,7.71
2023-03-23T21:54:15.826Z,7.60
2023-03-23T21:57:20.973Z,7.62
2023-03-23T22:00:26.883Z,7.64
2023-03-23T22:03:34.759Z,7.68
2023-03-23T22:06:39.913Z,7.62
2023-03-23T22:09:45.884Z,7.64
2023-03-23T22:12:54.971Z,7.63
2023-03-23T22:16:02.043Z,7.62
2023-03-23T22:19:09.047Z,7.65
2023-03-23T22:22:14.247Z,7.57
2023-03-23T22:25:19.797Z,7.60
2023-03-23T22:28:26.430Z,7.56
2023-03-23T22:31:35.223Z,7.48
2023-03-23T22:34:44.374Z,7.56
2023-03-23T22:37:49.584Z,7.56
2023-03-23T22:40:58.432Z,7.54
2023-03-23T22:44:03.663Z,7.60
2023-03-23T22:47:08.813Z,7.56
2023-03-23T22:50:16.386Z,7.62
2023-03-23T22:53:22.043Z,7.61
2023-03-23T22:56:27.427Z,7.66
2023-03-23T22:59:32.605Z,7.68
2023-03-23T23:02:37.797Z,7.63
2023-03-23T23:05:46.065Z,7.65
2023-03-23T23:08:51.816Z,7.73
2023-03-23T23:11:56.953Z,7.60
2023-03-23T23:15:02.603Z,7.55
2023-03-23T23:18:15.837Z,7.62
2023-03-23T23:21:26.107Z,7.58
2023-03-23T23:24:31.275Z,7.52
2023-03-23T23:27:36.893Z,7.53
2023-03-23T23:30:42.054Z,7.50
2023-03-23T23:33:47.311Z,7.48
2023-03-23T23:36:54.882Z,7.43
2023-03-23T23:40:00.105Z,7.51
2023-03-23T23:43:08.390Z,7.54
2023-03-23T23:46:13.816Z,7.53
2023-03-23T23:49:23.028Z,7.55
2023-03-23T23:52:29.756Z,7.52
2023-03-23T23:55:34.922Z,7.56
2023-03-23T23:58:40.616Z,7.60
